Time;durP1;ratioP1;P1;durP2;ratioP2;P2;SDS_P1;SDS_P2;PMS_P1;PMS_P2;Temp;Humidity;BMP_temperature;BMP_pressure;BME280_temperature;BME280_humidity;BME280_pressure;Samples;Min_cycle;Max_cycle;Signal;HPM_P1;HPM_P2
2021/09/03 00:00:09;;;;;;;8.32;5.45;;;;;;;16.29;61.03;97381.03;5083959;28;21503;-63
2021/09/03 00:02:37;;;;;;;6.85;5.43;;;;;;;17.03;60.33;97501.31;5083783;28;20512;-66
2021/09/03 00:05:06;;;;;;;8.88;5.68;;;;;;;17.14;60.94;97490.09;5084134;28;20135;-63
2021/09/03 00:07:34;;;;;;;7.28;5.90;;;;;;;17.20;61.22;97488.53;5082313;28;20165;-64
2021/09/03 00:10:01;;;;;;;9.10;5.90;;;;;;;17.17;61.51;97495.72;5084072;28;20052;-66
2021/09/03 00:12:27;;;;;;;9.65;6.28;;;;;;;16.75;62.09;97450.16;5082360;28;20067;-63
2021/09/03 00:14:54;;;;;;;8.15;5.68;;;;;;;17.03;62.53;97495.72;5082850;28;20062;-67
2021/09/03 00:17:21;;;;;;;7.78;5.55;;;;;;;17.17;62.39;97484.50;5082097;28;20055;-63
2021/09/03 00:19:48;;;;;;;9.43;5.95;;;;;;;17.24;62.18;97487.31;5083364;28;20056;-63
2021/09/03 00:22:15;;;;;;;9.55;5.07;;;;;;;17.29;62.07;97480.50;5083075;28;20064;-66
2021/09/03 00:24:41;;;;;;;6.20;5.32;;;;;;;17.34;61.11;97477.28;5082133;28;20044;-67
2021/09/03 00:27:08;;;;;;;10.07;5.10;;;;;;;17.54;60.55;97493.25;5083648;28;20056;-66
2021/09/03 00:29:35;;;;;;;12.77;6.10;;;;;;;17.56;61.19;97490.06;5083416;28;20059;-64
2021/09/03 00:32:02;;;;;;;7.55;5.65;;;;;;;17.18;61.74;97430.09;5083542;28;20089;-68
2021/09/03 00:34:28;;;;;;;11.65;5.80;;;;;;;16.96;62.78;97422.16;5085380;28;20434;-65
2021/09/03 00:36:55;;;;;;;9.48;6.32;;;;;;;17.50;62.50;97494.44;5087343;28;20867;-64
2021/09/03 00:39:22;;;;;;;9.75;6.45;;;;;;;17.36;62.09;97474.84;5087079;28;20119;-65
2021/09/03 00:41:49;;;;;;;9.93;6.63;;;;;;;17.35;62.28;97484.47;5086217;28;20071;-61
2021/09/03 00:44:15;;;;;;;7.85;6.15;;;;;;;17.39;62.66;97474.03;5087079;28;20055;-65
2021/09/03 00:46:42;;;;;;;7.50;5.60;;;;;;;17.34;62.31;97477.28;5085735;28;20054;-65
2021/09/03 00:49:09;;;;;;;9.18;5.32;;;;;;;17.36;62.26;97469.25;5086851;28;20044;-65
2021/09/03 00:51:36;;;;;;;8.60;6.07;;;;;;;16.90;61.88;97390.22;5086928;28;20048;-65
2021/09/03 00:54:03;;;;;;;9.88;6.13;;;;;;;16.81;62.61;97382.22;5087765;28;20043;-62
2021/09/03 00:56:31;;;;;;;7.35;5.45;;;;;;;17.31;61.98;97462.06;5086711;28;20052;-63
2021/09/03 00:58:58;;;;;;;16.42;5.70;;;;;;;17.25;62.53;97462.88;5085506;28;20071;-64
2021/09/03 01:01:25;;;;;;;9.18;6.30;;;;;;;16.81;63.09;97415.00;5086868;28;20052;-62
2021/09/03 01:03:52;;;;;;;9.02;5.78;;;;;;;16.36;63.49;97383.81;5085441;28;20068;-66
2021/09/03 01:06:19;;;;;;;8.20;6.05;;;;;;;16.87;63.01;97463.75;5085720;28;20063;-65
2021/09/03 01:08:46;;;;;;;7.88;5.68;;;;;;;16.82;63.19;97456.56;5087331;28;20054;-65
2021/09/03 01:11:13;;;;;;;7.80;5.60;;;;;;;16.79;63.53;97450.97;5086731;28;20087;-63
2021/09/03 01:13:39;;;;;;;6.10;5.13;;;;;;;16.69;64.33;97463.78;5086661;28;20056;-62
2021/09/03 01:16:06;;;;;;;8.73;5.93;;;;;;;16.19;64.72;97390.22;5086878;28;20052;-65
2021/09/03 01:18:33;;;;;;;6.30;4.68;;;;;;;16.28;63.01;97404.59;5087155;28;20544;-66
2021/09/03 01:20:59;;;;;;;6.40;4.85;;;;;;;16.54;63.59;97451.78;5086753;28;20064;-65
2021/09/03 01:23:27;;;;;;;8.30;4.78;;;;;;;16.46;63.04;97469.75;5085507;28;20063;-62
2021/09/03 01:25:53;;;;;;;6.32;4.63;;;;;;;16.55;63.45;97464.56;5086171;28;20048;-62
2021/09/03 01:28:20;;;;;;;8.43;4.78;;;;;;;16.45;64.04;97464.56;5086493;28;20048;-63
2021/09/03 01:30:47;;;;;;;7.15;5.10;;;;;;;16.43;64.70;97464.94;5086507;28;20052;-65
2021/09/03 01:33:13;;;;;;;8.32;5.10;;;;;;;16.30;65.14;97463.72;5086299;28;20503;-65
2021/09/03 01:35:40;;;;;;;7.70;4.82;;;;;;;15.81;65.01;97384.56;5086523;28;20056;-62
2021/09/03 01:38:08;;;;;;;7.00;5.20;;;;;;;16.34;64.82;97464.50;5086326;28;20054;-65
2021/09/03 01:40:35;;;;;;;7.03;5.10;;;;;;;16.22;64.71;97434.16;5086172;28;20044;-62
2021/09/03 01:43:01;;;;;;;6.75;5.28;;;;;;;16.30;65.68;97465.69;5085962;28;20522;-62
2021/09/03 01:45:28;;;;;;;7.72;4.75;;;;;;;16.14;65.54;97471.66;5084524;28;20055;-65
2021/09/03 01:47:55;;;;;;;7.43;5.20;;;;;;;16.08;65.45;97473.25;5086013;28;20047;-66
2021/09/03 01:50:22;;;;;;;10.30;4.65;;;;;;;16.24;65.04;97470.91;5086070;28;20048;-61
2021/09/03 01:52:49;;;;;;;8.27;5.00;;;;;;;16.23;66.08;97472.06;5086082;28;20044;-66
2021/09/03 01:55:15;;;;;;;7.45;5.05;;;;;;;16.03;67.65;97470.03;5086217;28;20060;-66
2021/09/03 01:57:42;;;;;;;9.07;5.55;;;;;;;15.53;67.59;97396.47;5085760;28;20051;-63
2021/09/03 02:00:09;;;;;;;7.68;5.15;;;;;;;16.05;67.36;97462.88;5084760;28;20047;-63
2021/09/03 02:02:36;;;;;;;8.50;5.60;;;;;;;16.11;67.09;97460.47;5085942;28;20056;-66
2021/09/03 02:05:04;;;;;;;8.32;5.70;;;;;;;16.16;67.65;97468.47;5085781;28;20063;-66
2021/09/03 02:07:32;;;;;;;10.23;5.00;;;;;;;15.92;67.98;97453.25;5084101;28;20062;-67
2021/09/03 02:09:59;;;;;;;8.43;5.38;;;;;;;14.84;67.73;97280.56;5086022;28;20050;-66
2021/09/03 02:12:26;;;;;;;7.90;5.10;;;;;;;16.06;67.84;97464.47;5085438;28;20473;-62
2021/09/03 02:14:55;;;;;;;5.68;5.07;;;;;;;15.87;66.92;97422.91;5085564;28;20052;-63
2021/09/03 02:17:22;;;;;;;7.00;5.20;;;;;;;15.86;67.43;97421.31;5084940;28;20427;-63
2021/09/03 02:19:49;;;;;;;6.00;5.40;;;;;;;16.20;67.15;97464.47;5083762;28;20059;-67
2021/09/03 02:22:16;;;;;;;7.53;5.63;;;;;;;15.98;66.50;97409.75;5085031;28;20059;-63
2021/09/03 02:24:42;;;;;;;7.85;5.28;;;;;;;16.48;65.52;97466.56;5084235;28;20052;-67
2021/09/03 02:27:09;;;;;;;6.43;5.68;;;;;;;16.48;65.35;97481.34;5085162;28;20044;-67
2021/09/03 02:29:36;;;;;;;5.97;5.40;;;;;;;16.58;64.76;97469.34;5083468;28;20063;-63
2021/09/03 02:32:03;;;;;;;6.55;5.82;;;;;;;16.27;63.94;97418.97;5084943;28;20067;-68
2021/09/03 02:34:30;;;;;;;7.75;5.75;;;;;;;16.72;63.56;97478.94;5083462;28;20441;-68
2021/09/03 02:36:56;;;;;;;8.52;5.65;;;;;;;16.82;62.70;97466.97;5085065;28;20151;-67
2021/09/03 02:39:23;;;;;;;6.85;5.30;;;;;;;16.75;65.82;97472.56;5085472;28;20101;-63
2021/09/03 02:41:50;;;;;;;7.80;5.32;;;;;;;15.84;68.87;97440.44;5084737;28;20062;-66
2021/09/03 02:44:17;;;;;;;9.73;6.03;;;;;;;16.28;68.09;97499.66;5084157;28;20054;-66
2021/09/03 02:46:43;;;;;;;6.22;5.07;;;;;;;16.32;67.75;97483.69;5083615;28;20059;-66
2021/09/03 02:49:10;;;;;;;5.95;5.15;;;;;;;16.44;67.75;97485.28;5084973;28;20063;-66
2021/09/03 02:51:37;;;;;;;8.95;6.22;;;;;;;16.19;67.25;97446.13;5085329;28;20048;-65
2021/09/03 02:54:03;;;;;;;7.63;5.50;;;;;;;16.32;68.82;97483.69;5083652;28;20048;-67
2021/09/03 02:56:30;;;;;;;9.30;5.00;;;;;;;16.14;70.20;97496.81;5082643;28;20052;-63
2021/09/03 02:58:57;;;;;;;7.40;5.35;;;;;;;15.69;71.70;97455.59;5084405;28;20063;-64
2021/09/03 03:01:24;;;;;;;10.07;5.03;;;;;;;15.99;71.33;97486.81;5083056;28;20087;-68
2021/09/03 03:03:51;;;;;;;6.63;5.50;;;;;;;16.00;70.45;97491.19;5084701;28;20044;-69
2021/09/03 03:06:17;;;;;;;8.73;4.93;;;;;;;15.76;69.26;97450.00;5085058;28;20051;-63
2021/09/03 03:08:44;;;;;;;8.73;5.07;;;;;;;16.09;69.36;97491.63;5084308;28;20417;-67
2021/09/03 03:11:11;;;;;;;7.55;5.10;;;;;;;15.96;70.13;97493.19;5084387;28;20620;-66
2021/09/03 03:13:38;;;;;;;11.50;5.82;;;;;;;15.91;69.98;97495.56;5083253;28;20418;-66
2021/09/03 03:16:05;;;;;;;6.93;5.57;;;;;;;15.69;71.19;97558.94;5083056;28;20079;-67
2021/09/03 03:18:33;;;;;;;6.97;5.00;;;;;;;15.33;71.23;97434.25;5084278;28;20101;-66
2021/09/03 03:21:00;;;;;;;9.48;5.50;;;;;;;15.54;72.74;97504.19;5084344;28;20052;-67
2021/09/03 03:23:27;;;;;;;8.20;5.00;;;;;;;15.53;72.31;97499.78;5084231;28;20056;-64
2021/09/03 03:25:54;;;;;;;5.68;5.03;;;;;;;15.42;72.43;97479.41;5084378;28;20059;-64
2021/09/03 03:28:21;;;;;;;6.78;4.82;;;;;;;15.46;72.38;97474.63;5082532;28;20446;-64
2021/09/03 03:30:48;;;;;;;9.18;5.60;;;;;;;15.54;72.60;97504.19;5084418;28;20062;-63
2021/09/03 03:33:15;;;;;;;8.02;5.32;;;;;;;15.52;73.13;97506.59;5083960;28;20044;-67
2021/09/03 03:35:41;;;;;;;7.65;5.10;;;;;;;15.37;73.34;97495.66;5084507;28;20063;-67
2021/09/03 03:38:08;;;;;;;7.35;4.85;;;;;;;15.64;71.92;97514.59;5082934;28;20051;-67
2021/09/03 03:40:35;;;;;;;9.95;5.03;;;;;;;15.36;71.98;97472.56;5083957;28;20052;-67
2021/09/03 03:43:01;;;;;;;6.07;4.90;;;;;;;15.69;72.01;97510.63;5083985;28;20063;-66
2021/09/03 03:45:28;;;;;;;5.97;4.70;;;;;;;15.77;72.40;97512.28;5083756;28;20063;-67
2021/09/03 03:47:55;;;;;;;6.43;5.32;;;;;;;15.31;74.46;97506.41;5083974;28;20062;-63
2021/09/03 03:50:21;;;;;;;9.98;7.38;;;;;;;14.65;74.91;97423.09;5083337;28;20552;-63
2021/09/03 03:52:48;;;;;;;8.10;5.85;;;;;;;15.33;74.79;97515.22;5083907;28;20052;-63
2021/09/03 03:55:15;;;;;;;13.07;7.40;;;;;;;15.38;74.84;97517.66;5084006;28;20044;-63
2021/09/03 03:57:42;;;;;;;8.90;6.60;;;;;;;15.40;75.81;97520.84;5083395;28;20056;-63
2021/09/03 04:00:09;;;;;;;11.75;6.05;;;;;;;15.16;75.59;97472.03;5083611;28;20059;-63
2021/09/03 04:02:36;;;;;;;8.00;5.72;;;;;;;15.59;75.61;97528.94;5082086;28;20151;-67
2021/09/03 04:05:03;;;;;;;11.85;6.57;;;;;;;15.72;74.64;97527.41;5083229;28;20491;-63
2021/09/03 04:07:30;;;;;;;11.25;6.05;;;;;;;15.71;74.75;97534.19;5083307;28;20052;-62
2021/09/03 04:09:57;;;;;;;12.43;6.65;;;;;;;15.56;74.27;97503.78;5086775;28;20048;-64
2021/09/03 04:12:23;;;;;;;16.77;11.35;;;;;;;15.62;75.73;97522.56;5087668;28;20553;-62
2021/09/03 04:14:50;;;;;;;13.88;9.40;;;;;;;15.63;76.03;97535.38;5086008;28;20048;-62
2021/09/03 04:17:17;;;;;;;20.15;9.27;;;;;;;15.65;76.62;97527.38;5087270;28;20056;-63
2021/09/03 04:19:44;;;;;;;12.95;6.40;;;;;;;14.92;81.18;97524.91;5087195;28;20430;-65
2021/09/03 04:22:10;;;;;;;11.52;6.40;;;;;;;14.72;82.56;97537.47;5082256;28;20087;-63
2021/09/03 04:24:37;;;;;;;9.60;6.80;;;;;;;14.27;82.01;97454.22;5067144;28;20052;-63
2021/09/03 04:27:04;;;;;;;13.85;7.65;;;;;;;15.01;81.71;97533.72;5067103;28;20538;-64
2021/09/03 04:29:31;;;;;;;12.57;7.50;;;;;;;15.23;81.47;97538.28;5065436;28;20056;-66
2021/09/03 04:31:57;;;;;;;8.57;6.35;;;;;;;15.30;82.03;97532.72;5065373;28;20049;-63
2021/09/03 04:34:24;;;;;;;18.52;8.85;;;;;;;15.29;83.49;97536.72;5066922;28;20056;-67
2021/09/03 04:36:51;;;;;;;10.45;7.18;;;;;;;14.78;82.80;97443.88;5065328;28;20053;-66
2021/09/03 04:39:18;;;;;;;10.15;6.38;;;;;;;15.25;79.79;97502.41;5067173;28;20068;-63
2021/09/03 04:41:44;;;;;;;11.45;6.97;;;;;;;15.36;78.83;97530.38;5066530;28;20484;-68
2021/09/03 04:44:11;;;;;;;10.60;6.35;;;;;;;14.94;77.94;97469.50;5066781;28;20067;-64
2021/09/03 04:46:38;;;;;;;11.50;7.00;;;;;;;14.88;77.38;97448.75;5066403;28;20059;-67
2021/09/03 04:49:05;;;;;;;8.98;6.95;;;;;;;15.61;76.68;97532.16;5064953;28;20067;-62
2021/09/03 04:51:31;;;;;;;14.35;7.28;;;;;;;15.77;75.60;97537.41;5066824;28;20048;-61
2021/09/03 04:53:58;;;;;;;12.23;6.50;;;;;;;15.90;74.62;97545.03;5067059;28;20064;-62
2021/09/03 04:56:25;;;;;;;15.05;6.53;;;;;;;16.03;73.89;97549.09;5066379;28;20095;-62
2021/09/03 04:58:51;;;;;;;11.65;7.22;;;;;;;15.50;73.64;97503.38;5064972;28;20087;-67
2021/09/03 05:01:18;;;;;;;22.13;7.20;;;;;;;15.82;72.57;97481.94;5066507;28;20090;-63
2021/09/03 05:03:47;;;;;;;15.75;7.70;;;;;;;13.87;72.18;97162.59;5065125;28;20051;-68
2021/09/03 05:06:18;;;;;;;16.08;7.03;;;;;;;16.28;72.99;97557.56;5066620;28;20095;-63
2021/09/03 05:08:45;;;;;;;9.40;6.20;;;;;;;16.07;72.33;97516.38;5065268;28;20048;-63
2021/09/03 05:11:11;;;;;;;15.30;6.68;;;;;;;16.53;73.31;97564.84;5066430;28;20492;-69
2021/09/03 05:13:38;;;;;;;16.35;7.38;;;;;;;16.70;73.11;97565.28;5064730;28;20068;-63
2021/09/03 05:16:05;;;;;;;8.05;6.30;;;;;;;16.91;71.30;97604.47;5067692;28;20062;-62
2021/09/03 05:18:33;;;;;;;9.00;6.15;;;;;;;16.58;70.78;97514.09;5067950;28;20135;-61
2021/09/03 05:21:00;;;;;;;8.95;6.38;;;;;;;16.91;70.58;97554.13;5062989;28;20499;-68
2021/09/03 05:23:27;;;;;;;11.30;6.63;;;;;;;17.00;70.75;97548.91;5072395;28;20051;-64
2021/09/03 05:25:54;;;;;;;10.05;6.22;;;;;;;17.12;70.48;97554.13;5071872;28;20518;-64
2021/09/03 05:28:21;;;;;;;11.77;6.95;;;;;;;17.32;70.03;97549.69;5075521;28;20047;-70
2021/09/03 05:30:47;;;;;;;10.68;5.82;;;;;;;16.27;68.70;97358.28;5075973;28;20048;-72
2021/09/03 05:33:14;;;;;;;6.38;5.75;;;;;;;17.69;65.16;97561.25;5088215;28;20074;-66
2021/09/03 05:35:41;;;;;;;6.47;4.97;;;;;;;17.84;64.02;97585.25;5083463;28;20055;-64
2021/09/03 05:38:08;;;;;;;6.60;5.35;;;;;;;17.94;63.63;97562.00;5068051;28;20052;-71
2021/09/03 05:40:35;;;;;;;6.35;5.68;;;;;;;18.09;62.97;97543.91;5065399;28;20124;-69
2021/09/03 05:43:02;;;;;;;8.75;5.43;;;;;;;17.85;61.65;97528.78;5079543;28;20048;-69
2021/09/03 05:45:29;;;;;;;6.85;5.00;;;;;;;18.14;60.41;97532.25;5077367;28;20532;-68
2021/09/03 05:47:58;;;;;;;9.60;5.97;;;;;;;18.38;58.20;97542.59;5069301;28;20438;-65
2021/09/03 05:50:26;;;;;;;8.40;5.50;;;;;;;18.59;56.33;97505.19;5065945;28;20057;-65
2021/09/03 05:52:52;;;;;;;6.10;5.50;;;;;;;18.20;55.12;97426.06;5074866;28;20044;-61
2021/09/03 05:55:19;;;;;;;10.13;5.60;;;;;;;19.11;54.45;97529.25;5083382;28;20146;-63
2021/09/03 05:57:47;;;;;;;8.13;5.93;;;;;;;19.27;54.50;97549.94;5078939;28;20052;-68
2021/09/03 06:00:14;;;;;;;13.07;6.47;;;;;;;19.71;53.86;97577.28;5075254;28;20048;-62
2021/09/03 06:02:41;;;;;;;10.48;6.82;;;;;;;19.54;52.45;97486.28;5069726;28;20045;-63
2021/09/03 06:05:08;;;;;;;7.60;6.40;;;;;;;20.26;51.73;97577.06;5080533;28;20056;-67
2021/09/03 06:07:35;;;;;;;7.25;6.55;;;;;;;20.05;50.49;97474.00;5079670;28;20507;-63
2021/09/03 06:10:04;;;;;;;8.40;6.65;;;;;;;20.87;50.32;97567.34;5065229;28;20402;-68
2021/09/03 06:12:31;;;;;;;10.05;8.05;;;;;;;21.17;50.34;97581.41;5063388;28;20126;-63
2021/09/03 06:14:58;;;;;;;7.97;7.18;;;;;;;21.07;47.70;97548.56;5065236;28;20056;-68
2021/09/03 06:17:25;;;;;;;10.43;7.03;;;;;;;20.20;48.50;97438.84;5064279;28;20087;-68
2021/09/03 06:19:52;;;;;;;7.28;6.32;;;;;;;21.10;47.65;97519.56;5064847;28;20503;-68
2021/09/03 06:22:18;;;;;;;6.75;6.13;;;;;;;21.56;47.71;97578.72;5075948;28;20044;-63
2021/09/03 06:24:45;;;;;;;8.57;6.60;;;;;;;21.28;48.02;97576.41;5083690;28;20055;-69
2021/09/03 06:27:12;;;;;;;7.60;6.90;;;;;;;20.94;48.60;97527.81;5075205;28;20041;-61
2021/09/03 06:29:40;;;;;;;10.30;7.07;;;;;;;21.39;48.13;97585.47;5074110;28;20564;-63
2021/09/03 06:32:13;;;;;;;7.55;6.78;;;;;;;21.30;47.24;97590.06;5070765;28;20511;-63
2021/09/03 06:34:43;;;;;;;13.55;8.98;;;;;;;20.92;49.05;97592.22;5078092;28;20048;-68
2021/09/03 06:37:10;;;;;;;8.55;7.43;;;;;;;21.03;47.14;97570.38;5072837;28;20143;-66
2021/09/03 06:39:37;;;;;;;7.35;6.63;;;;;;;20.15;49.96;97543.44;5082753;28;20052;-68
2021/09/03 06:42:05;;;;;;;8.77;5.93;;;;;;;20.81;50.03;97597.22;5078044;28;20059;-66
2021/09/03 06:44:33;;;;;;;14.90;8.07;;;;;;;19.73;51.16;97498.13;5082625;28;20052;-68
2021/09/03 06:47:00;;;;;;;9.07;6.68;;;;;;;20.13;51.08;97545.03;5083341;28;20951;-65
2021/09/03 06:49:27;;;;;;;8.55;7.05;;;;;;;20.59;50.75;97601.56;5073571;28;20446;-58
2021/09/03 06:51:53;;;;;;;13.43;6.70;;;;;;;20.74;49.46;97608.56;5073170;28;20056;-60
2021/09/03 06:54:20;;;;;;;8.90;6.47;;;;;;;21.00;48.76;97599.38;5074648;28;20063;-61
2021/09/03 06:56:47;;;;;;;9.75;6.88;;;;;;;20.60;48.08;97524.31;5072441;28;20056;-66
2021/09/03 06:59:14;;;;;;;8.07;7.28;;;;;;;18.94;48.14;97244.59;5081783;28;20044;-62
2021/09/03 07:01:41;;;;;;;10.98;7.72;;;;;;;20.81;48.06;97552.16;5081888;28;20091;-61
2021/09/03 07:04:08;;;;;;;10.07;7.82;;;;;;;20.92;48.87;97601.50;5080988;28;20423;-64
2021/09/03 07:06:35;;;;;;;8.75;6.93;;;;;;;20.54;48.49;97503.50;5083168;28;20051;-70
2021/09/03 07:09:04;;;;;;;7.00;6.30;;;;;;;21.25;47.46;97565.97;5083293;28;20056;-62
2021/09/03 07:11:32;;;;;;;8.02;7.22;;;;;;;21.37;48.26;97596.38;5082634;28;20052;-67
2021/09/03 07:14:00;;;;;;;6.18;5.60;;;;;;;21.29;47.73;97566.72;5083467;28;20058;-63
2021/09/03 07:16:28;;;;;;;8.30;6.72;;;;;;;20.94;49.08;97601.06;5083195;28;20486;-63
2021/09/03 07:18:56;;;;;;;7.60;6.53;;;;;;;20.38;50.58;97568.06;5081132;28;20426;-62
2021/09/03 07:21:23;;;;;;;9.50;6.25;;;;;;;21.05;48.85;97590.47;5076996;28;20052;-66
2021/09/03 07:23:51;;;;;;;6.75;6.15;;;;;;;21.26;48.49;97601.38;5081066;28;20052;-68
2021/09/03 07:26:18;;;;;;;7.18;6.43;;;;;;;21.17;49.48;97598.31;5075187;28;20058;-68
2021/09/03 07:28:45;;;;;;;6.95;6.03;;;;;;;20.60;49.07;97510.25;5082562;28;20584;-68
2021/09/03 07:31:12;;;;;;;10.05;6.68;;;;;;;21.14;49.38;97596.34;5076469;28;20044;-64
2021/09/03 07:33:39;;;;;;;7.15;6.43;;;;;;;19.47;49.66;97368.31;5079583;28;20147;-61
2021/09/03 07:36:06;;;;;;;6.72;5.43;;;;;;;20.37;49.48;97552.41;5073734;28;20048;-68
2021/09/03 07:38:34;;;;;;;7.53;6.00;;;;;;;20.73;50.44;97576.00;5073136;28;20060;-65
2021/09/03 07:41:01;;;;;;;11.10;7.07;;;;;;;18.90;49.54;97262.69;5081595;28;20426;-68
2021/09/03 07:43:28;;;;;;;6.75;6.05;;;;;;;20.96;49.60;97542.28;5076635;28;20048;-63
2021/09/03 07:45:58;;;;;;;8.57;6.85;;;;;;;20.93;49.54;97534.66;5072274;28;20687;-61
2021/09/03 07:48:25;;;;;;;8.60;6.03;;;;;;;21.42;49.42;97597.94;5082894;28;20086;-61
2021/09/03 07:50:52;;;;;;;7.90;5.65;;;;;;;21.28;49.26;97567.94;5082364;28;20051;-62
2021/09/03 07:53:19;;;;;;;8.63;6.38;;;;;;;21.63;48.02;97550.41;5082358;28;20139;-63
2021/09/03 07:55:46;;;;;;;8.90;6.07;;;;;;;22.21;46.23;97594.84;5072224;28;20055;-61
2021/09/03 07:58:13;;;;;;;6.88;6.18;;;;;;;22.37;45.64;97591.31;5076052;28;20195;-62
2021/09/03 08:00:40;;;;;;;6.93;6.22;;;;;;;21.99;46.32;97554.16;5074927;28;20045;-64
2021/09/03 08:03:07;;;;;;;6.50;5.90;;;;;;;22.24;45.51;97576.28;5074127;28;20044;-67
2021/09/03 08:05:34;;;;;;;6.70;6.10;;;;;;;22.41;46.78;97592.81;5079192;28;20055;-67
2021/09/03 08:08:03;;;;;;;8.00;7.20;;;;;;;22.19;45.97;97511.84;5082325;28;20411;-61
2021/09/03 08:10:32;;;;;;;8.38;6.97;;;;;;;22.69;46.07;97594.28;5078054;28;20060;-61
2021/09/03 08:13:00;;;;;;;8.73;7.55;;;;;;;22.54;46.31;97550.63;5081799;28;20060;-67
2021/09/03 08:15:28;;;;;;;9.20;7.63;;;;;;;23.01;46.18;97585.09;5082419;28;20058;-67
2021/09/03 08:17:56;;;;;;;7.70;6.07;;;;;;;22.97;45.09;97590.03;5076655;28;20140;-60
2021/09/03 08:20:23;;;;;;;6.90;6.30;;;;;;;22.84;44.98;97586.28;5078640;28;20216;-60
2021/09/03 08:22:51;;;;;;;6.55;5.93;;;;;;;22.56;44.92;97558.69;5076789;28;20178;-66
2021/09/03 08:25:19;;;;;;;6.90;5.97;;;;;;;22.67;45.21;97582.63;5084377;28;20044;-60
2021/09/03 08:27:48;;;;;;;8.93;6.63;;;;;;;22.70;45.12;97552.72;5081729;28;20063;-67
2021/09/03 08:30:16;;;;;;;7.35;6.43;;;;;;;22.98;44.99;97574.66;5081737;28;20056;-60
2021/09/03 08:32:46;;;;;;;8.75;6.38;;;;;;;22.98;44.19;97574.66;5078672;28;20277;-68
2021/09/03 08:35:14;;;;;;;8.48;6.20;;;;;;;22.24;44.64;97514.16;5077352;28;20049;-61
2021/09/03 08:37:41;;;;;;;8.90;6.55;;;;;;;22.61;45.15;97529.91;5077632;28;20075;-61
2021/09/03 08:40:12;;;;;;;8.30;6.15;;;;;;;23.21;43.32;97554.72;5076979;28;20062;-61
2021/09/03 08:42:41;;;;;;;6.32;5.80;;;;;;;23.77;42.14;97565.41;5081501;28;20063;-67
2021/09/03 08:45:11;;;;;;;11.15;6.47;;;;;;;24.05;41.98;97563.88;5082546;28;20145;-66
2021/09/03 08:47:39;;;;;;;6.97;6.38;;;;;;;24.34;41.01;97564.66;5082439;28;20135;-61
2021/09/03 08:50:09;;;;;;;7.22;6.53;;;;;;;22.09;41.71;97239.94;5077553;28;20486;-67
2021/09/03 08:52:39;;;;;;;10.65;6.53;;;;;;;23.21;43.53;97549.06;5081741;28;20586;-67
2021/09/03 08:55:06;;;;;;;7.47;6.50;;;;;;;23.65;42.54;97545.53;5083827;28;20130;-60
2021/09/03 08:57:33;;;;;;;7.75;6.32;;;;;;;23.92;41.79;97514.88;5080328;28;20052;-66
2021/09/03 09:00:14;;;;;;;8.55;7.68;;;;;;;23.81;41.60;97480.41;5085066;28;20092;-65
2021/09/03 09:03:16;;;;;;;8.38;6.68;;;;;;;24.44;41.24;97535.22;5080485;28;20059;-61
2021/09/03 09:05:56;;;;;;;8.55;6.25;;;;;;;24.70;40.63;97542.56;5077716;28;20051;-65
2021/09/03 09:08:26;;;;;;;7.68;5.82;;;;;;;24.68;40.09;97545.03;5084944;28;20451;-65
2021/09/03 09:10:55;;;;;;;5.90;5.30;;;;;;;24.83;39.72;97546.19;5084992;28;20048;-60
2021/09/03 09:13:25;;;;;;;6.30;5.70;;;;;;;24.79;40.67;97544.72;5085379;28;20431;-64
2021/09/03 09:15:59;;;;;;;7.15;6.45;;;;;;;23.87;38.76;97297.50;5085831;28;20522;-64
2021/09/03 09:18:49;;;;;;;11.38;7.40;;;;;;;25.90;38.57;97532.91;5085006;28;20051;-62
2021/09/03 09:21:29;;;;;;;6.88;6.30;;;;;;;25.62;38.20;97533.91;5082144;28;20147;-65
2021/09/03 09:24:00;;;;;;;8.70;5.97;;;;;;;25.38;38.55;97535.53;5097419;28;20155;-59
2021/09/03 09:26:49;;;;;;;8.52;6.15;;;;;;;25.17;39.64;97543.47;5085171;28;20407;-65
2021/09/03 09:29:22;;;;;;;9.38;6.57;;;;;;;25.07;38.65;97504.91;5085180;28;20139;-59
2021/09/03 09:31:57;;;;;;;6.95;6.22;;;;;;;25.10;39.50;97509.66;5077989;28;20067;-60
2021/09/03 09:34:35;;;;;;;6.25;5.75;;;;;;;24.75;40.29;97527.84;5085188;28;20067;-59
2021/09/03 09:37:11;;;;;;;6.97;6.40;;;;;;;24.63;38.65;97514.41;5084457;28;20133;-60
2021/09/03 09:39:42;;;;;;;7.78;5.43;;;;;;;24.64;40.55;97527.34;5085404;28;20059;-60
2021/09/03 09:42:22;;;;;;;7.57;6.78;;;;;;;25.04;39.40;97525.66;5084757;28;20063;-60
2021/09/03 09:45:09;;;;;;;6.72;6.05;;;;;;;24.96;39.29;97524.31;5076448;28;20139;-66
2021/09/03 09:47:37;;;;;;;6.00;5.47;;;;;;;24.98;39.73;97524.66;5084625;28;20052;-59
2021/09/03 09:50:22;;;;;;;8.20;7.40;;;;;;;25.11;38.94;97516.94;5084554;28;20052;-65
2021/09/03 09:52:49;;;;;;;7.07;5.95;;;;;;;24.97;39.75;97514.56;5083082;28;20147;-65
2021/09/03 09:55:16;;;;;;;7.47;5.93;;;;;;;24.74;39.38;97520.56;5083648;28;20438;-59
2021/09/03 09:57:44;;;;;;;6.53;6.00;;;;;;;24.43;39.78;97493.97;5083211;28;20048;-59
2021/09/03 10:00:12;;;;;;;6.38;5.78;;;;;;;24.52;40.35;97510.28;5073482;28;20063;-65
2021/09/03 10:02:38;;;;;;;7.15;6.45;;;;;;;23.02;39.83;97281.44;5084591;28;20044;-65
2021/09/03 10:05:06;;;;;;;11.02;7.28;;;;;;;24.71;40.16;97509.31;5085017;28;20091;-65
2021/09/03 10:07:33;;;;;;;6.80;5.80;;;;;;;25.01;39.15;97503.09;5079466;28;20082;-60
2021/09/03 10:10:01;;;;;;;8.75;7.95;;;;;;;25.16;38.56;97501.41;5079741;28;20072;-60
2021/09/03 10:12:27;;;;;;;9.55;7.30;;;;;;;24.54;39.50;97386.00;5079756;28;20043;-60
2021/09/03 10:14:54;;;;;;;6.70;6.20;;;;;;;25.82;37.09;97488.97;5079564;28;20055;-65
2021/09/03 10:17:21;;;;;;;7.32;6.63;;;;;;;25.74;37.33;97490.47;5083942;28;20044;-61
2021/09/03 10:19:51;;;;;;;7.53;6.85;;;;;;;25.62;37.98;97483.63;5082883;28;20059;-60
2021/09/03 10:22:21;;;;;;;6.70;6.18;;;;;;;25.40;36.79;97399.72;5084172;28;20043;-66
2021/09/03 10:25:08;;;;;;;6.72;6.20;;;;;;;26.14;36.40;97451.72;5084030;28;20048;-59
2021/09/03 10:27:35;;;;;;;7.00;6.50;;;;;;;26.23;36.66;97465.97;5072053;28;20052;-60
2021/09/03 10:30:22;;;;;;;7.53;6.93;;;;;;;26.57;36.13;97472.31;5082269;28;20052;-59
2021/09/03 10:32:49;;;;;;;6.97;6.47;;;;;;;26.51;35.65;97410.88;5071521;28;20058;-66
2021/09/03 10:35:19;;;;;;;7.97;7.28;;;;;;;27.01;35.26;97453.13;5078691;28;20048;-61
2021/09/03 10:37:46;;;;;;;10.45;8.85;;;;;;;26.99;36.15;97449.94;5074028;28;20059;-64
2021/09/03 10:40:18;;;;;;;7.85;7.15;;;;;;;26.93;35.48;97459.56;5076588;28;20078;-61
2021/09/03 10:42:48;;;;;;;9.20;7.38;;;;;;;27.00;35.09;97417.38;5081547;28;20044;-65
2021/09/03 10:45:25;;;;;;;9.85;7.85;;;;;;;27.18;34.72;97457.28;5083685;28;20112;-59
2021/09/03 10:48:10;;;;;;;9.18;8.38;;;;;;;27.31;34.87;97460.00;5077885;28;20067;-60
2021/09/03 10:50:55;;;;;;;8.90;7.32;;;;;;;26.87;35.42;97442.34;5075830;28;20536;-67
2021/09/03 10:53:28;;;;;;;6.90;6.40;;;;;;;27.04;35.68;97457.88;5081519;28;20050;-64
2021/09/03 10:56:22;;;;;;;7.93;6.93;;;;;;;25.71;37.78;97468.69;5079434;28;20136;-66
2021/09/03 10:58:51;;;;;;;8.38;7.40;;;;;;;26.04;36.91;97467.09;5079064;28;20062;-61
2021/09/03 11:01:18;;;;;;;8.50;7.85;;;;;;;25.09;38.43;97468.41;5082331;28;20516;-65
2021/09/03 11:34:42;;;;;;;7.43;6.75;;;;;;;24.09;40.08;97451.31;5072097;28;20059;-61
2021/09/03 11:37:44;;;;;;;9.60;7.20;;;;;;;24.89;37.57;97453.69;5078200;28;20137;-61
2021/09/03 11:40:16;;;;;;;7.15;6.57;;;;;;;25.00;38.05;97428.59;5061663;28;20051;-62
2021/09/03 11:42:59;;;;;;;8.85;7.28;;;;;;;25.04;39.34;97454.78;5068897;28;20490;-60
2021/09/03 11:45:38;;;;;;;8.35;7.35;;;;;;;25.63;37.44;97451.13;5075808;28;20089;-59
2021/09/03 11:48:13;;;;;;;8.07;7.28;;;;;;;24.26;38.59;97370.72;5075490;28;20401;-67
2021/09/03 11:50:52;;;;;;;10.75;8.40;;;;;;;24.81;38.81;97452.31;5076969;28;20056;-62
2021/09/03 11:53:34;;;;;;;7.68;6.95;;;;;;;25.29;37.77;97432.03;5081424;28;20142;-62
2021/09/03 11:56:14;;;;;;;8.27;7.35;;;;;;;25.64;38.09;97443.44;5082111;28;20056;-66
2021/09/03 11:58:57;;;;;;;8.23;7.53;;;;;;;25.92;37.17;97434.66;5066217;28;20059;-64
2021/09/03 12:01:36;;;;;;;8.50;7.55;;;;;;;26.14;37.78;97441.16;5062216;28;20055;-63
2021/09/03 12:04:12;;;;;;;8.45;7.05;;;;;;;25.55;36.00;97318.47;5073294;28;20067;-65
2021/09/03 12:06:52;;;;;;;8.85;8.02;;;;;;;26.05;36.73;97426.88;5089860;28;20893;-60
2021/09/03 12:09:33;;;;;;;9.73;7.90;;;;;;;26.08;37.59;97408.91;5073884;28;20523;-67